Time;durP1;ratioP1;P1;durP2;ratioP2;P2;SDS_P1;SDS_P2;PMS_P1;PMS_P2;Temp;Humidity;BMP_temperature;BMP_pressure;BME280_temperature;BME280_humidity;BME280_pressure;Samples;Min_cycle;Max_cycle;Signal;HPM_P1;HPM_P2
2022/07/03 00:00:36;;;;;;;15.85;11.25;;;20.70;99.90;;;;;;5227189;28;20025;-77
2022/07/03 00:03:07;;;;;;;13.50;9.90;;;20.60;99.90;;;;;;5225800;28;20025;-77
2022/07/03 00:05:39;;;;;;;14.50;10.75;;;20.80;99.90;;;;;;5226762;28;20032;-73
2022/07/03 00:08:09;;;;;;;11.88;9.27;;;20.70;99.90;;;;;;5227026;28;20368;-80
2022/07/03 00:10:40;;;;;;;13.27;9.75;;;20.70;99.90;;;;;;5227278;28;20029;-76
2022/07/03 00:13:11;;;;;;;11.50;9.75;;;20.70;99.90;;;;;;5226505;28;20437;-79
2022/07/03 00:15:43;;;;;;;13.38;10.55;;;20.50;99.90;;;;;;5225180;28;20067;-80
2022/07/03 00:18:14;;;;;;;13.20;9.93;;;20.50;99.90;;;;;;5226408;28;20049;-78
2022/07/03 00:20:47;;;;;;;15.98;10.43;;;20.50;99.90;;;;;;5225488;28;20372;-79
2022/07/03 00:23:21;;;;;;;15.43;9.70;;;20.50;99.90;;;;;;5226747;28;20091;-80
2022/07/03 00:25:52;;;;;;;14.70;10.50;;;20.60;99.90;;;;;;5225558;28;20020;-80
2022/07/03 00:28:25;;;;;;;17.65;9.95;;;20.60;99.90;;;;;;5225349;28;20032;-80
2022/07/03 00:30:56;;;;;;;14.07;9.65;;;20.70;99.90;;;;;;5226614;28;20079;-74
2022/07/03 00:33:29;;;;;;;13.40;10.80;;;20.60;99.90;;;;;;5226257;28;20025;-80
2022/07/03 00:35:59;;;;;;;17.60;11.90;;;20.50;99.90;;;;;;5226591;28;20083;-76
2022/07/03 00:38:31;;;;;;;13.75;10.73;;;20.40;99.90;;;;;;5226482;28;20032;-80
2022/07/03 00:41:03;;;;;;;13.00;10.82;;;20.50;99.90;;;;;;5225187;28;20025;-81
2022/07/03 00:43:34;;;;;;;19.05;10.52;;;20.50;99.90;;;;;;5226485;28;20028;-80
2022/07/03 00:46:08;;;;;;;13.38;10.20;;;20.50;99.90;;;;;;5226346;28;20387;-79
2022/07/03 00:48:44;;;;;;;13.52;10.00;;;20.50;99.90;;;;;;5226134;28;20032;-81
2022/07/03 00:51:18;;;;;;;15.00;9.98;;;20.30;99.90;;;;;;5225257;28;20027;-81
2022/07/03 00:53:54;;;;;;;13.95;10.27;;;20.40;99.90;;;;;;5226650;28;20037;-81
2022/07/03 00:56:27;;;;;;;12.25;9.75;;;20.20;99.90;;;;;;5224904;28;20040;-78
2022/07/03 00:59:00;;;;;;;14.35;9.77;;;20.50;99.90;;;;;;5226104;28;20031;-77
2022/07/03 01:01:34;;;;;;;11.90;9.85;;;20.30;99.90;;;;;;5226231;28;20171;-76
2022/07/03 01:04:32;;;;;;;15.38;10.32;;;20.20;99.90;;;;;;5225058;28;20460;-73
2022/07/03 01:07:07;;;;;;;19.85;10.25;;;20.20;99.90;;;;;;5226343;28;20530;-81
2022/07/03 01:10:20;;;;;;;15.27;10.82;;;20.20;99.90;;;;;;5225097;28;20117;-75
2022/07/03 01:12:54;;;;;;;13.93;9.32;;;20.40;99.90;;;;;;5154926;28;20539;-80
2022/07/03 01:15:36;;;;;;;10.88;9.50;;;20.30;99.90;;;;;;5225974;28;20025;-73
2022/07/03 01:18:31;;;;;;;14.10;9.75;;;20.30;99.90;;;;;;5225564;28;20114;-75
2022/07/03 01:21:34;;;;;;;13.05;9.65;;;20.20;99.90;;;;;;5208268;28;20191;-75
2022/07/03 01:24:35;;;;;;;13.20;10.23;;;20.20;99.90;;;;;;5226361;28;20029;-80
2022/07/03 01:27:16;;;;;;;13.13;9.18;;;20.10;99.90;;;;;;5229041;28;20354;-78
2022/07/03 01:30:18;;;;;;;14.02;8.77;;;20.00;99.90;;;;;;5229783;28;20079;-81
2022/07/03 01:33:17;;;;;;;12.80;8.95;;;20.00;99.90;;;;;;5209616;28;20041;-75
2022/07/03 01:36:09;;;;;;;11.57;8.82;;;19.90;99.90;;;;;;5228935;28;20045;-74
2022/07/03 01:38:46;;;;;;;13.73;8.93;;;19.80;99.90;;;;;;5228647;28;20493;-74
2022/07/03 01:41:21;;;;;;;12.60;8.68;;;19.80;99.90;;;;;;5229680;28;20047;-73
2022/07/03 01:44:02;;;;;;;10.45;8.10;;;19.60;99.90;;;;;;5229534;28;20028;-73
2022/07/03 01:46:38;;;;;;;10.52;7.68;;;19.60;99.90;;;;;;5227856;28;20461;-73
2022/07/03 01:49:15;;;;;;;16.23;8.38;;;19.70;99.90;;;;;;5229352;28;20025;-74
2022/07/03 01:51:51;;;;;;;11.05;7.22;;;19.60;99.90;;;;;;5229428;28;20032;-74
2022/07/03 01:54:30;;;;;;;7.57;6.78;;;19.80;99.90;;;;;;5228496;28;20025;-73
2022/07/03 01:57:05;;;;;;;13.98;6.82;;;19.70;99.90;;;;;;5229323;28;20025;-79
2022/07/03 01:59:36;;;;;;;9.90;6.72;;;19.50;99.90;;;;;;5229145;28;20029;-75
2022/07/03 02:02:17;;;;;;;7.80;6.60;;;19.40;99.90;;;;;;5229106;28;20092;-77
2022/07/03 02:05:02;;;;;;;10.25;6.45;;;19.40;99.90;;;;;;5227807;28;20040;-75
2022/07/03 02:07:41;;;;;;;9.45;6.32;;;19.30;99.90;;;;;;5229117;28;20096;-76
2022/07/03 02:10:16;;;;;;;11.43;6.30;;;19.30;99.90;;;;;;5229044;28;20014;-79
2022/07/03 02:12:48;;;;;;;8.93;6.32;;;19.20;99.90;;;;;;5229069;28;20033;-79
2022/07/03 02:15:30;;;;;;;9.68;6.50;;;19.30;99.90;;;;;;5228796;28;20013;-80
2022/07/03 02:18:21;;;;;;;8.45;6.25;;;19.10;99.90;;;;;;5227402;28;20485;-77
2022/07/03 02:21:10;;;;;;;9.30;6.90;;;19.00;99.90;;;;;;5227568;28;20040;-78
2022/07/03 02:24:05;;;;;;;10.07;6.68;;;19.10;99.90;;;;;;5228725;28;20021;-80
2022/07/03 02:26:39;;;;;;;8.63;6.95;;;18.90;99.90;;;;;;5228661;28;20036;-80
2022/07/03 02:29:17;;;;;;;9.80;6.25;;;18.90;99.90;;;;;;5228923;28;20429;-79
2022/07/03 02:31:58;;;;;;;9.75;6.72;;;18.70;99.90;;;;;;5228710;28;20036;-74
2022/07/03 02:34:31;;;;;;;11.00;6.80;;;18.80;99.90;;;;;;5228615;28;20059;-79
2022/07/03 02:37:16;;;;;;;10.05;5.78;;;18.80;99.90;;;;;;5228281;28;20071;-80
2022/07/03 02:51:43;;;;;;;9.15;6.07;;;18.80;99.90;;;;;;5302762;27;20812;-72
2022/07/03 02:54:15;;;;;;;12.88;7.07;;;18.60;99.90;;;;;;5286452;28;20370;-72
2022/07/03 02:57:08;;;;;;;7.63;6.53;;;18.60;99.90;;;;;;5286623;28;20106;-72
2022/07/03 03:00:00;;;;;;;8.65;6.32;;;18.50;99.90;;;;;;5286235;28;20478;-72
2022/07/03 03:02:47;;;;;;;8.90;6.57;;;18.60;99.90;;;;;;5286275;28;20031;-72
2022/07/03 03:05:23;;;;;;;11.02;6.85;;;18.50;99.90;;;;;;5286417;28;20019;-72
2022/07/03 03:08:54;;;;;;;9.85;6.78;;;18.30;99.90;;;;;;5285134;28;20352;-72
2022/07/03 03:11:45;;;;;;;7.35;6.32;;;18.30;99.90;;;;;;5241739;28;20032;-72
2022/07/03 03:14:20;;;;;;;8.30;6.60;;;18.50;99.90;;;;;;5224992;28;20488;-72
2022/07/03 03:16:53;;;;;;;11.07;6.75;;;18.50;99.90;;;;;;5241792;28;20033;-72
2022/07/03 03:19:24;;;;;;;8.00;6.85;;;18.50;99.90;;;;;;5241560;28;20029;-72
2022/07/03 03:22:17;;;;;;;9.93;6.82;;;18.40;99.90;;;;;;5224881;28;20527;-72
2022/07/03 03:24:48;;;;;;;10.48;7.15;;;18.40;99.90;;;;;;5213874;28;20038;-72
2022/07/03 03:27:20;;;;;;;8.85;7.38;;;18.50;99.90;;;;;;5221246;28;20040;-72
2022/07/03 03:29:51;;;;;;;11.52;6.78;;;18.30;99.90;;;;;;5221164;28;20040;-72
2022/07/03 03:32:24;;;;;;;8.40;6.25;;;18.50;99.90;;;;;;5221175;28;20037;-72
2022/07/03 03:34:55;;;;;;;8.40;6.25;;;18.60;99.90;;;;;;5220852;28;20510;-72
2022/07/03 03:37:26;;;;;;;7.97;7.10;;;18.70;99.90;;;;;;5221016;28;20033;-73
2022/07/03 03:39:57;;;;;;;10.10;7.13;;;18.80;99.90;;;;;;5220603;28;20041;-73
2022/07/03 03:42:28;;;;;;;9.95;7.03;;;18.70;99.90;;;;;;5248821;28;20542;-72
2022/07/03 03:44:59;;;;;;;8.02;6.70;;;18.90;99.90;;;;;;5264423;28;20020;-72
2022/07/03 03:47:30;;;;;;;9.85;7.72;;;19.00;99.90;;;;;;5264719;28;20024;-72
2022/07/03 03:50:04;;;;;;;8.63;6.05;;;19.10;99.90;;;;;;5264101;28;20048;-73
2022/07/03 03:52:35;;;;;;;15.13;6.60;;;19.30;99.90;;;;;;5250122;28;20411;-72
2022/07/03 03:55:08;;;;;;;11.90;7.55;;;19.50;99.90;;;;;;5250365;28;20059;-73
2022/07/03 03:57:39;;;;;;;13.25;7.10;;;19.30;99.90;;;;;;5282925;28;20031;-72
2022/07/03 04:00:11;;;;;;;9.27;6.35;;;19.60;99.90;;;;;;5248820;28;20037;-73
2022/07/03 04:02:42;;;;;;;9.05;6.88;;;19.80;99.90;;;;;;5250074;28;20043;-73
2022/07/03 04:05:13;;;;;;;9.98;6.75;;;19.80;99.90;;;;;;5249007;28;20028;-73
2022/07/03 04:07:44;;;;;;;8.73;6.88;;;19.90;99.90;;;;;;5248677;28;20024;-73
2022/07/03 04:10:15;;;;;;;10.30;6.78;;;20.20;99.90;;;;;;5265660;28;20055;-72
2022/07/03 04:12:45;;;;;;;7.10;6.40;;;20.20;99.90;;;;;;5261504;28;20089;-72
2022/07/03 04:15:16;;;;;;;8.05;6.95;;;20.40;99.90;;;;;;5270878;28;20022;-72
2022/07/03 04:17:51;;;;;;;13.43;8.15;;;20.60;99.90;;;;;;5270820;28;20038;-72
2022/07/03 04:20:22;;;;;;;10.02;7.10;;;21.00;99.90;;;;;;5270648;28;20048;-73
2022/07/03 04:22:53;;;;;;;15.73;8.40;;;21.10;99.90;;;;;;5270860;28;20081;-72
2022/07/03 04:25:24;;;;;;;15.50;8.07;;;21.50;99.90;;;;;;5270638;28;20028;-73
2022/07/03 04:27:55;;;;;;;15.02;6.72;;;21.40;99.90;;;;;;5270741;28;20016;-73
2022/07/03 04:30:26;;;;;;;9.95;6.97;;;21.90;99.90;;;;;;5270489;28;20528;-73
2022/07/03 04:32:57;;;;;;;10.57;7.30;;;22.20;99.90;;;;;;5270472;28;20026;-72
2022/07/03 04:35:28;;;;;;;13.43;7.13;;;22.40;99.90;;;;;;5270445;28;20032;-73
2022/07/03 04:37:59;;;;;;;13.45;7.78;;;22.50;99.90;;;;;;5270388;28;20050;-73
2022/07/03 04:40:30;;;;;;;12.00;6.97;;;22.50;99.90;;;;;;5270369;28;20050;-73
2022/07/03 04:43:01;;;;;;;12.98;7.05;;;22.70;99.90;;;;;;5268868;28;20467;-74
2022/07/03 04:45:32;;;;;;;10.48;7.10;;;22.70;99.90;;;;;;5270216;28;20016;-73
2022/07/03 04:48:03;;;;;;;16.10;7.95;;;22.90;99.90;;;;;;5270113;28;20024;-72
2022/07/03 04:50:34;;;;;;;13.18;7.40;;;23.00;99.90;;;;;;5269813;28;20056;-72
2022/07/03 04:53:05;;;;;;;14.43;7.93;;;23.30;99.90;;;;;;5268705;28;20032;-72
2022/07/03 04:55:36;;;;;;;17.02;7.20;;;23.10;99.90;;;;;;5270018;28;20108;-73
2022/07/03 04:58:07;;;;;;;15.90;7.35;;;23.10;99.90;;;;;;5269692;28;20024;-73
2022/07/03 05:00:40;;;;;;;16.00;8.45;;;23.30;99.90;;;;;;5269908;28;20032;-73
2022/07/03 05:03:12;;;;;;;15.48;7.35;;;23.50;99.90;;;;;;5268776;28;20024;-72
2022/07/03 05:05:43;;;;;;;10.38;5.82;;;23.40;99.90;;;;;;5268590;28;20028;-73
2022/07/03 05:08:14;;;;;;;15.70;6.57;;;23.40;99.90;;;;;;5270009;28;20021;-72
2022/07/03 05:10:44;;;;;;;16.95;5.60;;;23.40;99.90;;;;;;5268333;28;20067;-73
2022/07/03 05:13:15;;;;;;;18.15;5.32;;;23.20;99.90;;;;;;5268476;28;20035;-72
2022/07/03 05:15:46;;;;;;;14.10;5.90;;;23.00;99.90;;;;;;5268556;28;20016;-72
2022/07/03 05:18:17;;;;;;;15.48;4.93;;;23.20;99.90;;;;;;5269504;28;20035;-73
2022/07/03 05:20:48;;;;;;;13.05;5.25;;;23.50;99.90;;;;;;5269299;28;20086;-72
2022/07/03 05:23:19;;;;;;;15.63;5.93;;;23.60;99.90;;;;;;5268322;28;20020;-72
2022/07/03 05:25:50;;;;;;;10.18;5.00;;;23.50;99.90;;;;;;5269434;28;20020;-73
2022/07/03 05:28:21;;;;;;;11.05;4.80;;;23.60;99.90;;;;;;5269811;28;20020;-72
2022/07/03 05:30:52;;;;;;;18.70;5.30;;;23.70;99.90;;;;;;5269588;28;20159;-73
2022/07/03 05:33:23;;;;;;;15.30;4.57;;;24.10;99.90;;;;;;5268277;28;20107;-72
2022/07/03 05:35:57;;;;;;;13.45;4.28;;;24.10;99.90;;;;;;5267967;28;20024;-72
2022/07/03 05:41:18;;;;;;;11.07;3.95;;;24.20;99.90;;;;;;5269163;28;20560;-72
2022/07/03 05:43:49;;;;;;;14.45;4.25;;;24.10;99.90;;;;;;5269184;28;20024;-73
2022/07/03 05:46:19;;;;;;;10.65;3.63;;;24.40;99.90;;;;;;5267974;28;20399;-72
2022/07/03 05:48:50;;;;;;;11.25;3.67;;;24.40;99.90;;;;;;5269122;28;20032;-72
2022/07/03 05:51:21;;;;;;;8.35;3.65;;;24.10;99.90;;;;;;5268786;28;20044;-72
2022/07/03 05:53:52;;;;;;;20.13;3.35;;;24.30;99.90;;;;;;5268960;28;20039;-72
2022/07/03 05:56:24;;;;;;;9.38;3.40;;;24.50;99.90;;;;;;5267545;28;20028;-72
2022/07/03 05:58:55;;;;;;;11.52;3.50;;;24.80;99.90;;;;;;5267451;28;20053;-72
2022/07/03 06:01:26;;;;;;;12.63;3.30;;;24.70;99.90;;;;;;5268799;28;20563;-72
2022/07/03 06:03:57;;;;;;;9.95;2.80;;;24.80;99.90;;;;;;5268691;28;20466;-72
2022/07/03 06:06:28;;;;;;;14.95;2.70;;;25.00;99.90;;;;;;5268631;28;20016;-73
2022/07/03 06:08:59;;;;;;;8.45;2.95;;;24.80;99.90;;;;;;5268681;28;20031;-73
2022/07/03 06:11:30;;;;;;;16.15;2.95;;;24.90;99.90;;;;;;5268561;28;20028;-73
2022/07/03 06:14:00;;;;;;;7.70;2.65;;;24.90;99.90;;;;;;5268163;28;20448;-73
2022/07/03 07:58:31;;;;;;;6.40;1.80;;;26.40;99.90;;;;;;5308509;27;20406;-73
2022/07/03 08:06:40;;;;;;;7.13;1.60;;;26.50;99.90;;;;;;5308739;28;20108;-73
2022/07/03 08:09:11;;;;;;;10.63;1.90;;;26.60;99.90;;;;;;5308440;28;20023;-74
2022/07/03 08:11:42;;;;;;;12.32;1.70;;;26.60;99.90;;;;;;5304892;28;20375;-73
2022/07/03 08:14:13;;;;;;;13.35;2.08;;;27.00;99.90;;;;;;5303489;28;20024;-74
2022/07/03 08:16:45;;;;;;;6.63;1.60;;;26.80;99.90;;;;;;5308226;28;20035;-75
2022/07/03 08:19:16;;;;;;;9.77;1.98;;;26.30;99.90;;;;;;5308298;28;20031;-74
2022/07/03 08:21:47;;;;;;;7.28;1.60;;;27.00;99.90;;;;;;5308385;27;20351;-74
2022/07/03 08:24:19;;;;;;;10.52;2.00;;;27.20;99.90;;;;;;5308305;27;20035;-74
2022/07/03 08:26:50;;;;;;;5.97;1.45;;;27.20;99.90;;;;;;5308085;27;20040;-74
2022/07/03 08:29:20;;;;;;;6.88;1.95;;;27.00;99.90;;;;;;5308003;27;20027;-74
2022/07/03 08:31:51;;;;;;;8.05;1.83;;;27.00;99.90;;;;;;5308025;28;20049;-75
2022/07/03 08:34:23;;;;;;;12.35;1.95;;;26.70;99.90;;;;;;5307896;27;20103;-75
2022/07/03 08:36:53;;;;;;;7.47;1.83;;;27.20;99.90;;;;;;5285064;27;20374;-75
2022/07/03 08:39:24;;;;;;;7.13;1.50;;;27.60;99.90;;;;;;5288253;27;20038;-75
2022/07/03 08:41:56;;;;;;;7.20;1.95;;;27.60;99.90;;;;;;5289512;28;20016;-74
2022/07/03 08:44:28;;;;;;;9.18;1.70;;;27.60;99.90;;;;;;5290087;27;20020;-74
2022/07/03 08:47:02;;;;;;;10.63;1.67;;;27.60;99.90;;;;;;5285190;28;20028;-74
2022/07/03 08:49:33;;;;;;;3.40;1.15;;;27.50;99.90;;;;;;5284159;28;20395;-74
2022/07/03 08:52:07;;;;;;;8.75;1.75;;;27.10;99.90;;;;;;5290451;28;20016;-73
2022/07/03 08:54:38;;;;;;;5.35;1.77;;;27.60;99.90;;;;;;5288328;27;20030;-74
2022/07/03 08:57:11;;;;;;;7.63;1.77;;;27.70;99.90;;;;;;5284580;28;20040;-73
2022/07/03 08:59:45;;;;;;;8.77;1.60;;;27.90;99.90;;;;;;5270865;28;20110;-73
2022/07/03 09:02:20;;;;;;;5.45;1.63;;;27.80;99.90;;;;;;5271199;28;20391;-74
2022/07/03 09:04:51;;;;;;;7.53;1.50;;;27.60;99.90;;;;;;5282659;28;20027;-74
2022/07/03 09:07:24;;;;;;;8.18;1.60;;;27.50;99.90;;;;;;5273492;28;20107;-74
2022/07/03 09:09:55;;;;;;;4.25;1.35;;;27.60;99.90;;;;;;5276224;28;20100;-74
2022/07/03 09:12:26;;;;;;;8.10;1.88;;;28.00;99.90;;;;;;5275722;28;20115;-74
2022/07/03 09:14:57;;;;;;;10.68;1.58;;;27.70;99.90;;;;;;5271033;28;20115;-75
2022/07/03 09:17:29;;;;;;;12.70;2.92;;;27.40;99.90;;;;;;5271153;28;20024;-74
2022/07/03 09:20:03;;;;;;;24.42;2.50;;;27.80;99.90;;;;;;5271535;28;20085;-73
2022/07/03 09:22:36;;;;;;;10.65;2.30;;;27.90;99.90;;;;;;5271574;28;20099;-73
2022/07/03 09:25:16;;;;;;;5.75;1.63;;;28.00;99.90;;;;;;5271680;28;20024;-74
2022/07/03 09:27:51;;;;;;;9.70;1.60;;;27.90;99.90;;;;;;5271068;28;20054;-73
2022/07/03 09:30:22;;;;;;;10.13;1.50;;;28.00;99.90;;;;;;5270309;28;20024;-73
2022/07/03 09:32:53;;;;;;;6.50;1.52;;;28.40;99.90;;;;;;5271562;28;20089;-73
2022/07/03 09:35:25;;;;;;;9.35;1.70;;;28.20;99.90;;;;;;5271652;28;20028;-73
2022/07/03 09:37:58;;;;;;;4.57;1.40;;;28.10;99.90;;;;;;5271450;28;20347;-73
2022/07/03 09:40:51;;;;;;;6.53;1.88;;;28.00;99.90;;;;;;5271437;28;20107;-73
2022/07/03 09:43:24;;;;;;;7.75;1.77;;;27.90;99.90;;;;;;5267323;28;20036;-74
2022/07/03 09:46:02;;;;;;;9.85;1.92;;;28.30;99.90;;;;;;5271047;28;20362;-74
2022/07/03 09:48:39;;;;;;;2.95;1.40;;;28.10;99.90;;;;;;5271020;28;20036;-74
2022/07/03 09:51:12;;;;;;;6.15;1.92;;;28.10;99.90;;;;;;5271167;28;20021;-74
2022/07/03 09:53:52;;;;;;;9.02;2.63;;;28.10;99.90;;;;;;5270846;28;20028;-75
2022/07/03 09:56:38;;;;;;;7.50;1.30;;;28.30;99.90;;;;;;5270748;28;20028;-75
2022/07/03 09:59:15;;;;;;;7.13;1.25;;;28.50;99.90;;;;;;5270692;28;20032;-74
2022/07/03 10:01:46;;;;;;;14.20;1.30;;;28.10;99.90;;;;;;5270976;28;20020;-74
2022/07/03 10:04:22;;;;;;;6.07;1.50;;;28.50;99.90;;;;;;5270735;28;20114;-75
2022/07/03 10:07:01;;;;;;;4.28;1.20;;;28.40;99.90;;;;;;5273544;28;20039;-75
2022/07/03 10:09:34;;;;;;;4.63;1.40;;;28.50;99.90;;;;;;5286392;28;20036;-76
2022/07/03 10:12:05;;;;;;;8.57;1.30;;;28.80;99.90;;;;;;5284410;28;20475;-75
2022/07/03 10:14:38;;;;;;;6.60;1.27;;;28.50;99.90;;;;;;5274808;28;20209;-75
2022/07/03 10:17:09;;;;;;;9.77;1.45;;;28.40;99.90;;;;;;5291695;28;20379;-76
2022/07/03 10:19:40;;;;;;;7.93;1.40;;;28.40;99.90;;;;;;5291550;28;20020;-75
2022/07/03 10:22:21;;;;;;;8.18;1.42;;;28.60;99.90;;;;;;5291644;28;20016;-76
2022/07/03 10:24:53;;;;;;;4.63;1.30;;;28.30;99.80;;;;;;5291431;28;20051;-76
2022/07/03 10:27:24;;;;;;;6.63;1.30;;;28.90;99.90;;;;;;5291290;28;20514;-76
2022/07/03 10:29:56;;;;;;;6.30;1.40;;;28.60;99.00;;;;;;5290257;28;20405;-76
2022/07/03 10:32:28;;;;;;;10.98;1.60;;;27.90;99.90;;;;;;5291225;28;20046;-76
2022/07/03 10:35:01;;;;;;;7.28;1.38;;;28.30;99.90;;;;;;5285802;28;20028;-74
2022/07/03 10:37:45;;;;;;;4.60;1.67;;;28.80;99.90;;;;;;5248906;28;20060;-73
2022/07/03 10:46:21;;;;;;;4.57;1.23;;;29.10;97.50;;;;;;5248759;28;20388;-73
2022/07/03 10:49:08;;;;;;;7.75;1.63;;;28.30;88.70;;;;;;5288791;28;20440;-73
2022/07/03 10:51:45;;;;;;;8.35;1.52;;;29.00;90.40;;;;;;5291058;28;20371;-73
2022/07/03 10:54:21;;;;;;;9.43;1.70;;;28.60;92.40;;;;;;5290773;27;20023;-73
2022/07/03 10:56:58;;;;;;;5.45;1.60;;;29.30;97.70;;;;;;5290523;28;20055;-73
2022/07/03 10:59:40;;;;;;;8.82;1.65;;;29.00;94.40;;;;;;5281970;28;20055;-75
2022/07/03 11:02:18;;;;;;;2.72;1.20;;;29.00;95.00;;;;;;5269682;28;20028;-73
2022/07/03 11:04:58;;;;;;;9.13;1.63;;;28.90;91.80;;;;;;5272141;28;20051;-74
2022/07/03 11:07:43;;;;;;;12.60;1.85;;;28.70;90.90;;;;;;5269300;28;20387;-74
2022/07/03 11:10:14;;;;;;;4.18;1.40;;;28.80;92.10;;;;;;5268461;28;20394;-73
2022/07/03 11:13:06;;;;;;;5.18;1.42;;;29.20;96.20;;;;;;5269504;28;20031;-74
2022/07/03 11:15:48;;;;;;;3.40;1.30;;;29.40;95.50;;;;;;5269307;28;20058;-75
2022/07/03 11:18:24;;;;;;;4.68;1.38;;;29.00;88.30;;;;;;5268910;28;20062;-73
2022/07/03 11:21:07;;;;;;;9.20;1.70;;;28.30;90.90;;;;;;5269277;28;20028;-77
2022/07/03 11:23:45;;;;;;;9.15;1.50;;;28.50;89.40;;;;;;5269409;28;20028;-74
2022/07/03 11:26:16;;;;;;;9.50;1.65;;;29.00;92.00;;;;;;5269327;28;20036;-73
2022/07/03 11:28:46;;;;;;;5.22;1.35;;;28.80;92.40;;;;;;5269193;28;20034;-74
2022/07/03 11:31:19;;;;;;;8.32;1.67;;;28.90;92.50;;;;;;5269546;28;20454;-73
2022/07/03 11:33:56;;;;;;;8.57;1.88;;;29.00;97.70;;;;;;5267414;28;20028;-73
2022/07/03 11:36:28;;;;;;;7.57;2.10;;;28.80;95.50;;;;;;5268747;28;20074;-73
2022/07/03 11:39:03;;;;;;;8.48;1.60;;;29.00;93.70;;;;;;5274004;28;20061;-73
2022/07/03 11:41:36;;;;;;;3.78;1.42;;;29.10;96.40;;;;;;5267872;28;20028;-73
2022/07/03 11:44:09;;;;;;;4.72;1.65;;;28.80;92.90;;;;;;5268343;28;20150;-74
2022/07/03 11:46:40;;;;;;;10.02;1.90;;;28.70;99.40;;;;;;5274461;28;20036;-72
2022/07/03 11:49:14;;;;;;;5.82;1.50;;;28.80;99.30;;;;;;5261447;28;20029;-74
2022/07/03 11:51:58;;;;;;;6.72;1.80;;;28.20;99.90;;;;;;5267167;28;20043;-74
2022/07/03 11:54:48;;;;;;;10.07;1.80;;;28.50;99.90;;;;;;5262916;28;20403;-73
2022/07/03 11:57:20;;;;;;;5.63;1.70;;;28.50;99.90;;;;;;5270440;28;20059;-76
2022/07/03 11:59:54;;;;;;;12.75;2.10;;;28.20;99.90;;;;;;5286174;28;20132;-75
2022/07/03 12:02:24;;;;;;;6.53;1.40;;;28.50;99.90;;;;;;5269387;28;20092;-75
2022/07/03 12:04:55;;;;;;;5.50;1.20;;;28.80;99.90;;;;;;5278588;28;20102;-74
2022/07/03 12:07:26;;;;;;;4.22;1.52;;;28.90;99.90;;;;;;5289645;28;20040;-74
2022/07/03 12:09:57;;;;;;;5.28;1.40;;;29.00;99.90;;;;;;5271487;28;20028;-75
2022/07/03 12:12:36;;;;;;;4.43;1.38;;;28.40;99.90;;;;;;5268858;28;20129;-74
2022/07/03 12:15:07;;;;;;;3.15;1.30;;;27.90;99.90;;;;;;5269053;28;20016;-74
2022/07/03 12:17:44;;;;;;;6.80;1.60;;;28.30;99.90;;;;;;5268647;28;20028;-74
2022/07/03 12:20:17;;;;;;;4.68;1.45;;;28.30;99.90;;;;;;5268531;28;20012;-73
2022/07/03 12:22:48;;;;;;;6.72;1.67;;;28.30;99.90;;;;;;5268757;28;20024;-74
2022/07/03 12:25:19;;;;;;;6.72;1.88;;;28.30;99.90;;;;;;5268317;28;20028;-75
2022/07/03 12:27:50;;;;;;;7.15;1.60;;;28.40;99.90;;;;;;5267281;28;20074;-75
2022/07/03 12:30:24;;;;;;;5.80;1.58;;;28.60;99.90;;;;;;5268837;28;20034;-74
2022/07/03 12:32:56;;;;;;;6.13;1.50;;;28.60;99.90;;;;;;5283736;28;20025;-74
2022/07/03 12:35:29;;;;;;;8.68;2.10;;;28.30;99.90;;;;;;5289105;28;20028;-75
2022/07/03 12:38:00;;;;;;;6.72;1.48;;;28.00;99.90;;;;;;5272594;28;20028;-75
2022/07/03 12:40:31;;;;;;;4.40;1.60;;;28.40;99.90;;;;;;5268073;28;20027;-72
2022/07/03 12:43:02;;;;;;;8.65;1.45;;;27.60;99.90;;;;;;5263059;28;20044;-74
2022/07/03 12:45:33;;;;;;;4.93;1.40;;;27.90;99.90;;;;;;5267184;28;20016;-75
2022/07/03 12:48:05;;;;;;;7.47;1.40;;;28.90;99.90;;;;;;5266026;28;20106;-75
2022/07/03 12:50:52;;;;;;;6.13;1.30;;;28.40;99.90;;;;;;5260107;28;20023;-75
2022/07/03 12:53:26;;;;;;;9.25;1.45;;;28.60;99.90;;;;;;5260345;28;20032;-74
2022/07/03 12:56:05;;;;;;;4.45;1.58;;;28.10;99.90;;;;;;5260275;28;20032;-73
2022/07/03 13:01:36;;;;;;;4.40;1.20;;;27.90;99.90;;;;;;5259641;28;20373;-75
2022/07/03 13:04:08;;;;;;;5.57;1.50;;;27.70;99.90;;;;;;5250604;28;20024;-74
2022/07/03 13:06:39;;;;;;;6.72;1.80;;;27.90;99.90;;;;;;5250718;28;20040;-74
2022/07/03 13:09:10;;;;;;;4.25;1.50;;;27.70;99.90;;;;;;5250834;28;20035;-73
2022/07/03 13:11:42;;;;;;;8.77;1.63;;;28.10;99.90;;;;;;5250765;28;20025;-75
2022/07/03 13:14:15;;;;;;;6.97;1.30;;;28.00;99.90;;;;;;5270334;28;20024;-76
2022/07/03 13:16:48;;;;;;;7.82;1.52;;;28.00;99.90;;;;;;5270205;28;20027;-76
2022/07/03 13:19:24;;;;;;;5.22;1.45;;;28.40;99.90;;;;;;5271534;28;20095;-75
2022/07/03 13:21:56;;;;;;;8.02;1.70;;;28.40;99.90;;;;;;5264270;28;20028;-76
2022/07/03 13:24:27;;;;;;;12.73;1.60;;;27.90;99.90;;;;;;5271613;28;20378;-75
2022/07/03 13:26:58;;;;;;;4.85;1.42;;;28.30;99.90;;;;;;5271271;28;20115;-75
2022/07/03 13:29:29;;;;;;;5.13;1.52;;;27.90;99.90;;;;;;5271571;28;20486;-75
2022/07/03 13:32:00;;;;;;;6.30;1.30;;;27.50;99.90;;;;;;5268766;28;20024;-75
2022/07/03 13:34:31;;;;;;;5.03;1.20;;;28.30;99.90;;;;;;5268609;28;20035;-74
2022/07/03 13:37:02;;;;;;;5.70;1.92;;;28.40;99.90;;;;;;5270876;28;20020;-73
2022/07/03 13:39:33;;;;;;;5.85;1.90;;;27.80;99.90;;;;;;5272442;28;20085;-72
2022/07/03 13:42:05;;;;;;;6.68;2.53;;;28.00;99.90;;;;;;5268670;28;20471;-74
2022/07/03 13:44:36;;;;;;;8.00;3.05;;;28.10;99.90;;;;;;5268086;28;20040;-74
2022/07/03 13:47:07;;;;;;;7.85;2.22;;;28.30;99.90;;;;;;5276130;28;20034;-75
2022/07/03 13:49:38;;;;;;;5.32;1.70;;;28.10;99.90;;;;;;5273290;28;20020;-75
2022/07/03 13:52:09;;;;;;;5.50;1.67;;;28.10;99.90;;;;;;5269444;28;20028;-75
2022/07/03 13:54:39;;;;;;;4.05;1.15;;;28.20;99.90;;;;;;5270981;28;20043;-74
2022/07/03 13:57:10;;;;;;;5.38;1.30;;;28.30;99.90;;;;;;5269279;28;20098;-75
2022/07/03 13:59:41;;;;;;;10.48;1.70;;;27.70;99.90;;;;;;5268280;28;20026;-74
2022/07/03 14:02:12;;;;;;;5.22;1.40;;;27.80;99.90;;;;;;5270571;28;20073;-73
2022/07/03 14:04:42;;;;;;;9.23;1.50;;;27.80;99.90;;;;;;5272136;28;20034;-74
2022/07/03 14:07:16;;;;;;;15.02;1.65;;;28.20;99.90;;;;;;5274352;28;20479;-74
2022/07/03 14:09:47;;;;;;;6.32;1.52;;;27.90;99.90;;;;;;5269896;28;20137;-74
2022/07/03 14:12:18;;;;;;;5.25;1.25;;;27.60;99.90;;;;;;5272068;28;20036;-74
2022/07/03 14:14:49;;;;;;;5.90;1.80;;;27.60;99.90;;;;;;5270284;28;20823;-73
2022/07/03 14:17:20;;;;;;;17.23;1.95;;;27.40;99.90;;;;;;5271032;28;20487;-75
2022/07/03 14:19:52;;;;;;;9.15;1.45;;;27.40;99.90;;;;;;5269258;28;20016;-74
2022/07/03 14:22:23;;;;;;;6.05;1.50;;;27.90;99.90;;;;;;5271657;28;20128;-74
2022/07/03 14:24:54;;;;;;;10.15;1.52;;;27.70;99.90;;;;;;5266943;28;20123;-74
2022/07/03 14:33:04;;;;;;;8.00;1.40;;;27.30;99.90;;;;;;5268724;28;20035;-75
2022/07/03 14:35:36;;;;;;;5.43;1.95;;;27.40;99.90;;;;;;5268813;28;20040;-75
2022/07/03 14:38:07;;;;;;;7.88;1.60;;;27.60;99.90;;;;;;5266474;28;20021;-75
2022/07/03 14:40:38;;;;;;;7.55;2.05;;;27.20;99.90;;;;;;5269246;28;20046;-76
2022/07/03 14:43:09;;;;;;;9.90;1.75;;;27.30;99.90;;;;;;5268945;28;20095;-75
2022/07/03 14:45:40;;;;;;;5.05;1.55;;;27.60;99.90;;;;;;5269173;28;20035;-74
2022/07/03 14:48:10;;;;;;;6.47;1.55;;;27.40;99.90;;;;;;5268545;28;20039;-73
2022/07/03 14:50:41;;;;;;;3.90;1.80;;;26.90;99.90;;;;;;5272713;28;20020;-72
2022/07/03 14:53:12;;;;;;;6.32;1.38;;;26.70;99.90;;;;;;5274443;28;20024;-73
2022/07/03 14:55:44;;;;;;;6.65;1.45;;;27.10;99.90;;;;;;5251643;28;20162;-74
2022/07/03 14:58:17;;;;;;;15.32;1.80;;;27.00;99.90;;;;;;5262790;28;20052;-74
2022/07/03 15:00:56;;;;;;;9.63;3.47;;;26.80;99.90;;;;;;5268939;28;20024;-74
2022/07/03 15:03:33;;;;;;;12.30;1.83;;;27.20;99.90;;;;;;5272012;28;20539;-74
2022/07/03 15:06:08;;;;;;;8.63;1.60;;;26.70;99.90;;;;;;5270560;28;20477;-74
2022/07/03 15:09:17;;;;;;;5.93;1.88;;;26.90;99.90;;;;;;5268014;28;20027;-74
2022/07/03 15:14:44;;;;;;;5.45;1.80;;;26.30;99.90;;;;;;5266409;28;20453;-75
2022/07/03 15:17:15;;;;;;;6.38;1.75;;;26.40;99.90;;;;;;5270210;28;20539;-74
2022/07/03 15:19:49;;;;;;;7.68;1.83;;;26.30;99.90;;;;;;5270929;28;20020;-73
2022/07/03 15:22:21;;;;;;;7.82;2.17;;;25.90;99.90;;;;;;5270203;28;20028;-75
2022/07/03 15:24:53;;;;;;;4.10;1.60;;;25.90;99.90;;;;;;5267765;28;20063;-74
2022/07/03 15:27:25;;;;;;;7.90;1.80;;;25.90;99.90;;;;;;5267554;28;20052;-74
2022/07/03 15:29:57;;;;;;;4.13;1.52;;;26.10;99.90;;;;;;5270510;28;20085;-74
2022/07/03 15:32:28;;;;;;;6.07;1.80;;;25.90;99.90;;;;;;5270053;28;20058;-75
2022/07/03 15:34:59;;;;;;;11.55;2.10;;;25.60;99.90;;;;;;5278217;28;20467;-75
2022/07/03 15:38:13;;;;;;;12.38;2.17;;;25.70;99.90;;;;;;5263439;28;20016;-75
2022/07/03 15:40:52;;;;;;;8.23;1.60;;;25.70;99.90;;;;;;5266381;28;20039;-75